sensor_id;sensor_type;location;lat;lon;timestamp;temperature;humidity
2899;DHT22;1459;50.864;6.438;2022-09-09T00:01:23;16.00;99.90
2899;DHT22;1459;50.864;6.438;2022-09-09T00:03:56;16.10;99.90
2899;DHT22;1459;50.864;6.438;2022-09-09T00:06:28;16.10;99.90
2899;DHT22;1459;50.864;6.438;2022-09-09T00:09:04;16.00;99.90
2899;DHT22;1459;50.864;6.438;2022-09-09T00:11:41;16.00;99.90
2899;DHT22;1459;50.864;6.438;2022-09-09T00:14:16;15.90;99.90
2899;DHT22;1459;50.864;6.438;2022-09-09T00:16:50;15.80;99.90
2899;DHT22;1459;50.864;6.438;2022-09-09T00:19:23;15.80;99.90
2899;DHT22;1459;50.864;6.438;2022-09-09T00:21:58;15.80;99.90
2899;DHT22;1459;50.864;6.438;2022-09-09T00:24:29;15.80;99.90
2899;DHT22;1459;50.864;6.438;2022-09-09T00:27:07;15.70;99.90
2899;DHT22;1459;50.864;6.438;2022-09-09T00:29:40;15.70;99.90
2899;DHT22;1459;50.864;6.438;2022-09-09T00:32:12;15.70;99.90
2899;DHT22;1459;50.864;6.438;2022-09-09T00:34:47;15.70;99.90
2899;DHT22;1459;50.864;6.438;2022-09-09T00:37:15;15.70;99.90
2899;DHT22;1459;50.864;6.438;2022-09-09T00:39:44;15.60;99.90
2899;DHT22;1459;50.864;6.438;2022-09-09T00:42:17;15.60;99.90
2899;DHT22;1459;50.864;6.438;2022-09-09T00:44:56;15.60;99.90
2899;DHT22;1459;50.864;6.438;2022-09-09T00:47:45;15.50;99.90
2899;DHT22;1459;50.864;6.438;2022-09-09T00:50:38;15.50;99.90
2899;DHT22;1459;50.864;6.438;2022-09-09T00:53:20;15.50;99.90
2899;DHT22;1459;50.864;6.438;2022-09-09T00:55:52;15.50;99.90
2899;DHT22;1459;50.864;6.438;2022-09-09T00:58:22;15.40;99.90
2899;DHT22;1459;50.864;6.438;2022-09-09T01:00:52;15.40;99.90
2899;DHT22;1459;50.864;6.438;2022-09-09T01:03:26;15.40;99.90
2899;DHT22;1459;50.864;6.438;2022-09-09T01:06:02;15.40;99.90
2899;DHT22;1459;50.864;6.438;2022-09-09T01:11:49;15.30;99.90
2899;DHT22;1459;50.864;6.438;2022-09-09T01:14:38;15.30;99.90
2899;DHT22;1459;50.864;6.438;2022-09-09T01:17:13;15.30;99.90
2899;DHT22;1459;50.864;6.438;2022-09-09T01:19:51;15.30;99.90
2899;DHT22;1459;50.864;6.438;2022-09-09T01:22:26;15.30;99.90
2899;DHT22;1459;50.864;6.438;2022-09-09T01:25:26;15.20;99.90
2899;DHT22;1459;50.864;6.438;2022-09-09T01:27:58;15.20;99.90
2899;DHT22;1459;50.864;6.438;2022-09-09T01:30:28;15.20;99.90
2899;DHT22;1459;50.864;6.438;2022-09-09T01:32:57;15.20;99.90
2899;DHT22;1459;50.864;6.438;2022-09-09T01:35:45;15.30;99.90
2899;DHT22;1459;50.864;6.438;2022-09-09T01:38:14;15.30;99.90
2899;DHT22;1459;50.864;6.438;2022-09-09T01:40:42;15.30;99.90
2899;DHT22;1459;50.864;6.438;2022-09-09T01:43:10;15.40;99.90
2899;DHT22;1459;50.864;6.438;2022-09-09T01:45:39;15.30;99.90
2899;DHT22;1459;50.864;6.438;2022-09-09T01:48:07;15.40;99.90
2899;DHT22;1459;50.864;6.438;2022-09-09T01:50:34;15.40;99.90
2899;DHT22;1459;50.864;6.438;2022-09-09T01:53:02;15.40;99.90
2899;DHT22;1459;50.864;6.438;2022-09-09T01:55:31;15.50;99.90
2899;DHT22;1459;50.864;6.438;2022-09-09T01:58:11;15.50;99.90
2899;DHT22;1459;50.864;6.438;2022-09-09T02:00:45;15.60;99.90
2899;DHT22;1459;50.864;6.438;2022-09-09T02:03:21;15.60;99.90
2899;DHT22;1459;50.864;6.438;2022-09-09T02:05:59;15.60;99.90
2899;DHT22;1459;50.864;6.438;2022-09-09T02:08:35;15.60;99.90
2899;DHT22;1459;50.864;6.438;2022-09-09T02:11:08;15.70;99.90
2899;DHT22;1459;50.864;6.438;2022-09-09T02:13:40;15.70;99.90
2899;DHT22;1459;50.864;6.438;2022-09-09T02:16:10;15.80;99.90
2899;DHT22;1459;50.864;6.438;2022-09-09T02:18:44;15.90;99.90
2899;DHT22;1459;50.864;6.438;2022-09-09T02:21:13;15.90;99.90
2899;DHT22;1459;50.864;6.438;2022-09-09T02:23:42;16.00;99.90
2899;DHT22;1459;50.864;6.438;2022-09-09T02:26:10;16.00;99.90
2899;DHT22;1459;50.864;6.438;2022-09-09T02:28:41;16.00;99.90
2899;DHT22;1459;50.864;6.438;2022-09-09T02:31:09;16.10;99.90
2899;DHT22;1459;50.864;6.438;2022-09-09T02:33:40;16.10;99.90
2899;DHT22;1459;50.864;6.438;2022-09-09T02:36:09;16.20;99.90
2899;DHT22;1459;50.864;6.438;2022-09-09T02:38:41;16.20;99.90
2899;DHT22;1459;50.864;6.438;2022-09-09T02:41:09;16.20;99.90
2899;DHT22;1459;50.864;6.438;2022-09-09T02:43:36;16.20;99.90
2899;DHT22;1459;50.864;6.438;2022-09-09T02:46:12;16.20;99.90
2899;DHT22;1459;50.864;6.438;2022-09-09T02:48:50;16.20;99.90
2899;DHT22;1459;50.864;6.438;2022-09-09T02:51:23;16.30;99.90
2899;DHT22;1459;50.864;6.438;2022-09-09T02:53:57;16.30;99.90
2899;DHT22;1459;50.864;6.438;2022-09-09T02:56:31;16.30;99.90
2899;DHT22;1459;50.864;6.438;2022-09-09T02:59:03;16.30;99.90
2899;DHT22;1459;50.864;6.438;2022-09-09T03:01:32;16.30;99.90
2899;DHT22;1459;50.864;6.438;2022-09-09T03:03:59;16.30;99.90
2899;DHT22;1459;50.864;6.438;2022-09-09T03:06:26;16.30;99.90
2899;DHT22;1459;50.864;6.438;2022-09-09T03:08:56;16.30;99.90
2899;DHT22;1459;50.864;6.438;2022-09-09T03:11:26;16.30;99.90
2899;DHT22;1459;50.864;6.438;2022-09-09T03:13:56;16.30;99.90
2899;DHT22;1459;50.864;6.438;2022-09-09T03:16:23;16.30;99.90
2899;DHT22;1459;50.864;6.438;2022-09-09T03:18:51;16.40;99.90
2899;DHT22;1459;50.864;6.438;2022-09-09T03:21:18;16.40;99.90
2899;DHT22;1459;50.864;6.438;2022-09-09T03:23:45;16.50;99.90
2899;DHT22;1459;50.864;6.438;2022-09-09T03:26:12;16.50;99.90
2899;DHT22;1459;50.864;6.438;2022-09-09T03:28:41;16.50;99.90
2899;DHT22;1459;50.864;6.438;2022-09-09T03:31:08;16.60;99.90
2899;DHT22;1459;50.864;6.438;2022-09-09T03:33:36;16.50;99.90
2899;DHT22;1459;50.864;6.438;2022-09-09T03:36:05;16.60;99.90
2899;DHT22;1459;50.864;6.438;2022-09-09T03:38:33;16.60;99.90
2899;DHT22;1459;50.864;6.438;2022-09-09T03:41:00;16.60;99.90
2899;DHT22;1459;50.864;6.438;2022-09-09T03:43:28;16.60;99.90
2899;DHT22;1459;50.864;6.438;2022-09-09T03:45:56;16.60;99.90
2899;DHT22;1459;50.864;6.438;2022-09-09T03:48:24;16.60;99.90
2899;DHT22;1459;50.864;6.438;2022-09-09T03:50:52;16.60;99.90
2899;DHT22;1459;50.864;6.438;2022-09-09T03:53:22;16.60;99.90
2899;DHT22;1459;50.864;6.438;2022-09-09T03:55:53;16.60;99.90
2899;DHT22;1459;50.864;6.438;2022-09-09T03:58:22;16.60;99.90
2899;DHT22;1459;50.864;6.438;2022-09-09T04:01:00;16.60;99.90
2899;DHT22;1459;50.864;6.438;2022-09-09T04:03:28;16.60;99.90
2899;DHT22;1459;50.864;6.438;2022-09-09T04:05:56;16.60;99.90
2899;DHT22;1459;50.864;6.438;2022-09-09T04:08:25;16.70;99.90
2899;DHT22;1459;50.864;6.438;2022-09-09T04:10:53;16.70;99.90
2899;DHT22;1459;50.864;6.438;2022-09-09T04:13:22;16.70;99.90
2899;DHT22;1459;50.864;6.438;2022-09-09T04:15:51;16.70;99.90
2899;DHT22;1459;50.864;6.438;2022-09-09T04:18:19;16.70;99.90
2899;DHT22;1459;50.864;6.438;2022-09-09T04:20:47;16.70;99.90
2899;DHT22;1459;50.864;6.438;2022-09-09T04:23:14;16.80;99.90
2899;DHT22;1459;50.864;6.438;2022-09-09T04:25:45;16.80;99.90
2899;DHT22;1459;50.864;6.438;2022-09-09T04:28:13;16.80;99.90
2899;DHT22;1459;50.864;6.438;2022-09-09T04:30:40;16.80;99.90
2899;DHT22;1459;50.864;6.438;2022-09-09T04:33:10;16.80;99.90
2899;DHT22;1459;50.864;6.438;2022-09-09T04:35:38;16.90;99.90
2899;DHT22;1459;50.864;6.438;2022-09-09T04:38:05;16.90;99.90
2899;DHT22;1459;50.864;6.438;2022-09-09T04:40:35;16.90;99.90
2899;DHT22;1459;50.864;6.438;2022-09-09T04:43:03;16.90;99.90
2899;DHT22;1459;50.864;6.438;2022-09-09T04:45:31;16.90;99.90
2899;DHT22;1459;50.864;6.438;2022-09-09T04:47:59;16.90;99.90
2899;DHT22;1459;50.864;6.438;2022-09-09T04:50:26;16.90;99.90
2899;DHT22;1459;50.864;6.438;2022-09-09T04:52:54;17.00;99.90
2899;DHT22;1459;50.864;6.438;2022-09-09T04:55:21;17.00;99.90
2899;DHT22;1459;50.864;6.438;2022-09-09T04:57:48;17.00;99.90
2899;DHT22;1459;50.864;6.438;2022-09-09T05:00:17;17.00;99.90
2899;DHT22;1459;50.864;6.438;2022-09-09T05:02:44;17.00;99.90
2899;DHT22;1459;50.864;6.438;2022-09-09T05:05:11;17.10;99.90
2899;DHT22;1459;50.864;6.438;2022-09-09T05:07:39;17.10;99.90
2899;DHT22;1459;50.864;6.438;2022-09-09T05:10:06;17.10;99.90
2899;DHT22;1459;50.864;6.438;2022-09-09T05:12:33;17.00;99.90
2899;DHT22;1459;50.864;6.438;2022-09-09T05:15:00;17.10;99.90
2899;DHT22;1459;50.864;6.438;2022-09-09T05:17:29;17.00;99.90
2899;DHT22;1459;50.864;6.438;2022-09-09T05:19:56;17.00;99.90
2899;DHT22;1459;50.864;6.438;2022-09-09T05:22:23;17.10;99.90
2899;DHT22;1459;50.864;6.438;2022-09-09T05:24:50;17.00;99.90
2899;DHT22;1459;50.864;6.438;2022-09-09T05:27:17;17.10;99.90
2899;DHT22;1459;50.864;6.438;2022-09-09T05:29:45;17.00;99.90
2899;DHT22;1459;50.864;6.438;2022-09-09T05:32:12;17.00;99.90
2899;DHT22;1459;50.864;6.438;2022-09-09T05:34:42;17.00;99.90
2899;DHT22;1459;50.864;6.438;2022-09-09T05:37:09;17.00;99.90
2899;DHT22;1459;50.864;6.438;2022-09-09T05:39:36;17.00;99.90
2899;DHT22;1459;50.864;6.438;2022-09-09T05:42:06;17.00;99.90
2899;DHT22;1459;50.864;6.438;2022-09-09T05:44:33;17.00;99.90
2899;DHT22;1459;50.864;6.438;2022-09-09T05:47:00;16.90;99.90
2899;DHT22;1459;50.864;6.438;2022-09-09T05:49:28;16.90;99.90
2899;DHT22;1459;50.864;6.438;2022-09-09T05:51:57;16.90;99.90
2899;DHT22;1459;50.864;6.438;2022-09-09T05:54:24;16.90;99.90
2899;DHT22;1459;50.864;6.438;2022-09-09T05:56:51;16.90;99.90
2899;DHT22;1459;50.864;6.438;2022-09-09T05:59:19;16.90;99.90
2899;DHT22;1459;50.864;6.438;2022-09-09T06:01:46;16.90;99.90
2899;DHT22;1459;50.864;6.438;2022-09-09T06:04:13;17.00;99.90
2899;DHT22;1459;50.864;6.438;2022-09-09T06:06:40;17.00;99.90
2899;DHT22;1459;50.864;6.438;2022-09-09T06:09:10;17.10;99.90
2899;DHT22;1459;50.864;6.438;2022-09-09T06:11:38;17.20;99.90
2899;DHT22;1459;50.864;6.438;2022-09-09T06:14:07;17.20;99.90
2899;DHT22;1459;50.864;6.438;2022-09-09T06:16:35;17.30;99.90
2899;DHT22;1459;50.864;6.438;2022-09-09T06:19:04;17.40;99.90
2899;DHT22;1459;50.864;6.438;2022-09-09T06:21:32;17.40;99.90
2899;DHT22;1459;50.864;6.438;2022-09-09T06:24:02;17.40;99.90
2899;DHT22;1459;50.864;6.438;2022-09-09T06:26:32;17.50;99.90
2899;DHT22;1459;50.864;6.438;2022-09-09T06:29:01;17.50;99.90
2899;DHT22;1459;50.864;6.438;2022-09-09T06:31:30;17.50;99.90
2899;DHT22;1459;50.864;6.438;2022-09-09T06:33:58;17.50;99.90
2899;DHT22;1459;50.864;6.438;2022-09-09T06:36:30;17.50;99.90
2899;DHT22;1459;50.864;6.438;2022-09-09T06:38:58;17.40;99.90
2899;DHT22;1459;50.864;6.438;2022-09-09T06:41:26;17.40;99.90
2899;DHT22;1459;50.864;6.438;2022-09-09T06:43:55;17.40;99.90
2899;DHT22;1459;50.864;6.438;2022-09-09T06:46:23;17.40;99.90
2899;DHT22;1459;50.864;6.438;2022-09-09T06:48:53;17.40;99.90
2899;DHT22;1459;50.864;6.438;2022-09-09T06:51:23;17.50;99.90
2899;DHT22;1459;50.864;6.438;2022-09-09T06:53:52;17.50;99.90
2899;DHT22;1459;50.864;6.438;2022-09-09T06:56:22;17.50;99.90
2899;DHT22;1459;50.864;6.438;2022-09-09T06:58:50;17.50;99.90
2899;DHT22;1459;50.864;6.438;2022-09-09T07:01:20;17.60;99.90
2899;DHT22;1459;50.864;6.438;2022-09-09T07:03:48;17.60;99.90
2899;DHT22;1459;50.864;6.438;2022-09-09T07:06:17;17.70;99.90
2899;DHT22;1459;50.864;6.438;2022-09-09T07:08:48;17.80;99.90
2899;DHT22;1459;50.864;6.438;2022-09-09T07:11:16;17.80;99.90
2899;DHT22;1459;50.864;6.438;2022-09-09T07:13:43;17.90;99.90
2899;DHT22;1459;50.864;6.438;2022-09-09T07:16:12;18.00;99.90
2899;DHT22;1459;50.864;6.438;2022-09-09T07:18:41;18.00;99.90
2899;DHT22;1459;50.864;6.438;2022-09-09T07:21:10;18.10;99.90
2899;DHT22;1459;50.864;6.438;2022-09-09T07:23:38;18.10;99.90
2899;DHT22;1459;50.864;6.438;2022-09-09T07:43:31;19.10;99.90
2899;DHT22;1459;50.864;6.438;2022-09-09T07:45:59;19.20;99.90
2899;DHT22;1459;50.864;6.438;2022-09-09T07:48:27;19.30;99.90
2899;DHT22;1459;50.864;6.438;2022-09-09T07:51:08;19.30;99.90
2899;DHT22;1459;50.864;6.438;2022-09-09T07:53:37;19.40;99.90
2899;DHT22;1459;50.864;6.438;2022-09-09T07:56:06;19.50;99.90
2899;DHT22;1459;50.864;6.438;2022-09-09T07:58:35;19.60;99.90
2899;DHT22;1459;50.864;6.438;2022-09-09T08:01:07;19.70;99.90
2899;DHT22;1459;50.864;6.438;2022-09-09T08:03:34;19.80;99.90
2899;DHT22;1459;50.864;6.438;2022-09-09T08:06:04;19.90;99.90
2899;DHT22;1459;50.864;6.438;2022-09-09T08:08:31;20.00;99.90
2899;DHT22;1459;50.864;6.438;2022-09-09T08:11:04;20.10;99.90
2899;DHT22;1459;50.864;6.438;2022-09-09T08:13:31;20.10;99.90
2899;DHT22;1459;50.864;6.438;2022-09-09T08:16:05;20.20;99.90
2899;DHT22;1459;50.864;6.438;2022-09-09T08:18:32;20.30;99.90
2899;DHT22;1459;50.864;6.438;2022-09-09T08:21:07;20.40;99.90
2899;DHT22;1459;50.864;6.438;2022-09-09T08:23:35;20.40;99.90
2899;DHT22;1459;50.864;6.438;2022-09-09T08:26:07;20.40;99.90
2899;DHT22;1459;50.864;6.438;2022-09-09T08:28:34;20.40;99.90
2899;DHT22;1459;50.864;6.438;2022-09-09T08:31:06;20.30;99.90
2899;DHT22;1459;50.864;6.438;2022-09-09T08:33:33;20.20;99.90
2899;DHT22;1459;50.864;6.438;2022-09-09T08:36:02;20.10;99.90
2899;DHT22;1459;50.864;6.438;2022-09-09T08:38:31;20.10;99.90
2899;DHT22;1459;50.864;6.438;2022-09-09T08:41:06;20.20;99.90
2899;DHT22;1459;50.864;6.438;2022-09-09T08:43:34;20.40;99.90
2899;DHT22;1459;50.864;6.438;2022-09-09T08:46:11;20.40;99.90
2899;DHT22;1459;50.864;6.438;2022-09-09T08:48:48;20.50;99.90
2899;DHT22;1459;50.864;6.438;2022-09-09T08:51:19;20.50;99.90
2899;DHT22;1459;50.864;6.438;2022-09-09T08:53:49;20.60;99.90
2899;DHT22;1459;50.864;6.438;2022-09-09T08:56:21;20.80;99.90
2899;DHT22;1459;50.864;6.438;2022-09-09T08:58:49;20.90;99.90
2899;DHT22;1459;50.864;6.438;2022-09-09T09:04:11;21.00;99.90
2899;DHT22;1459;50.864;6.438;2022-09-09T09:06:48;21.00;99.90
2899;DHT22;1459;50.864;6.438;2022-09-09T09:09:22;20.90;99.90
2899;DHT22;1459;50.864;6.438;2022-09-09T09:11:55;20.60;99.90
2899;DHT22;1459;50.864;6.438;2022-09-09T09:14:28;20.40;99.90
2899;DHT22;1459;50.864;6.438;2022-09-09T09:16:58;20.30;99.90
2899;DHT22;1459;50.864;6.438;2022-09-09T09:19:27;20.10;99.90
2899;DHT22;1459;50.864;6.438;2022-09-09T09:22:00;20.20;99.90
2899;DHT22;1459;50.864;6.438;2022-09-09T09:24:38;20.30;99.90
2899;DHT22;1459;50.864;6.438;2022-09-09T09:27:12;20.50;99.90
2899;DHT22;1459;50.864;6.438;2022-09-09T09:29:40;20.80;99.90
2899;DHT22;1459;50.864;6.438;2022-09-09T09:32:12;21.00;99.90
2899;DHT22;1459;50.864;6.438;2022-09-09T09:34:40;21.20;99.90
2899;DHT22;1459;50.864;6.438;2022-09-09T09:37:15;21.30;99.90
2899;DHT22;1459;50.864;6.438;2022-09-09T09:39:46;21.30;99.90
2899;DHT22;1459;50.864;6.438;2022-09-09T09:42:17;21.30;99.90
2899;DHT22;1459;50.864;6.438;2022-09-09T09:44:44;21.40;99.90
2899;DHT22;1459;50.864;6.438;2022-09-09T09:47:13;21.40;99.90
2899;DHT22;1459;50.864;6.438;2022-09-09T09:49:51;21.30;99.90
2899;DHT22;1459;50.864;6.438;2022-09-09T09:52:22;21.20;99.90
2899;DHT22;1459;50.864;6.438;2022-09-09T09:54:52;21.20;99.90
2899;DHT22;1459;50.864;6.438;2022-09-09T09:57:25;21.30;99.90
2899;DHT22;1459;50.864;6.438;2022-09-09T10:00:01;21.40;99.90
2899;DHT22;1459;50.864;6.438;2022-09-09T10:02:37;21.40;99.90
2899;DHT22;1459;50.864;6.438;2022-09-09T10:05:12;21.50;99.90
2899;DHT22;1459;50.864;6.438;2022-09-09T10:07:40;21.50;99.90
2899;DHT22;1459;50.864;6.438;2022-09-09T10:10:16;21.70;99.90
2899;DHT22;1459;50.864;6.438;2022-09-09T10:15:34;22.20;99.90
2899;DHT22;1459;50.864;6.438;2022-09-09T10:18:15;22.20;99.90
2899;DHT22;1459;50.864;6.438;2022-09-09T10:20:50;22.40;99.90
2899;DHT22;1459;50.864;6.438;2022-09-09T10:23:29;22.50;99.90
2899;DHT22;1459;50.864;6.438;2022-09-09T10:26:12;22.60;99.90
2899;DHT22;1459;50.864;6.438;2022-09-09T10:29:05;22.70;99.90
2899;DHT22;1459;50.864;6.438;2022-09-09T10:31:41;22.60;99.90
2899;DHT22;1459;50.864;6.438;2022-09-09T10:34:33;22.40;99.90
2899;DHT22;1459;50.864;6.438;2022-09-09T10:37:11;22.30;99.90
2899;DHT22;1459;50.864;6.438;2022-09-09T10:39:42;22.10;99.90
2899;DHT22;1459;50.864;6.438;2022-09-09T10:42:12;22.00;99.90
2899;DHT22;1459;50.864;6.438;2022-09-09T10:44:59;22.00;99.90
2899;DHT22;1459;50.864;6.438;2022-09-09T10:47:50;22.00;99.90
2899;DHT22;1459;50.864;6.438;2022-09-09T10:53:28;22.40;99.90
2899;DHT22;1459;50.864;6.438;2022-09-09T10:56:00;22.60;99.90
2899;DHT22;1459;50.864;6.438;2022-09-09T10:58:36;22.70;99.90
2899;DHT22;1459;50.864;6.438;2022-09-09T11:01:13;22.70;99.90
2899;DHT22;1459;50.864;6.438;2022-09-09T11:03:43;22.70;99.90
2899;DHT22;1459;50.864;6.438;2022-09-09T11:11:17;23.10;99.90
2899;DHT22;1459;50.864;6.438;2022-09-09T11:13:51;23.10;99.90
2899;DHT22;1459;50.864;6.438;2022-09-09T11:16:25;23.10;99.90
2899;DHT22;1459;50.864;6.438;2022-09-09T11:18:59;22.90;99.90
2899;DHT22;1459;50.864;6.438;2022-09-09T11:21:31;22.70;99.90
2899;DHT22;1459;50.864;6.438;2022-09-09T11:24:02;22.70;99.90
2899;DHT22;1459;50.864;6.438;2022-09-09T11:26:35;22.60;99.90
2899;DHT22;1459;50.864;6.438;2022-09-09T11:29:52;22.50;99.90
2899;DHT22;1459;50.864;6.438;2022-09-09T11:32:44;22.40;99.90
2899;DHT22;1459;50.864;6.438;2022-09-09T11:35:28;22.40;99.90
2899;DHT22;1459;50.864;6.438;2022-09-09T11:38:19;22.50;99.90
2899;DHT22;1459;50.864;6.438;2022-09-09T11:40:46;22.50;99.90
2899;DHT22;1459;50.864;6.438;2022-09-09T11:43:24;22.50;99.90
2899;DHT22;1459;50.864;6.438;2022-09-09T11:45:57;22.60;99.90
2899;DHT22;1459;50.864;6.438;2022-09-09T11:48:34;22.70;99.90
2899;DHT22;1459;50.864;6.438;2022-09-09T11:51:07;22.80;99.90
2899;DHT22;1459;50.864;6.438;2022-09-09T11:53:35;22.80;99.90
2899;DHT22;1459;50.864;6.438;2022-09-09T11:56:11;22.60;99.90
2899;DHT22;1459;50.864;6.438;2022-09-09T11:58:44;22.60;99.90
2899;DHT22;1459;50.864;6.438;2022-09-09T12:01:29;22.40;99.90
2899;DHT22;1459;50.864;6.438;2022-09-09T12:04:26;22.10;99.90
2899;DHT22;1459;50.864;6.438;2022-09-09T12:06:58;21.00;99.90
2899;DHT22;1459;50.864;6.438;2022-09-09T12:17:19;19.40;99.90
2899;DHT22;1459;50.864;6.438;2022-09-09T12:19:46;19.20;99.90
2899;DHT22;1459;50.864;6.438;2022-09-09T12:22:21;19.20;99.90
2899;DHT22;1459;50.864;6.438;2022-09-09T12:24:56;19.30;99.90
2899;DHT22;1459;50.864;6.438;2022-09-09T12:27:30;19.50;99.90
2899;DHT22;1459;50.864;6.438;2022-09-09T12:30:02;19.80;99.90
2899;DHT22;1459;50.864;6.438;2022-09-09T12:32:31;20.10;99.90
2899;DHT22;1459;50.864;6.438;2022-09-09T12:35:02;20.40;99.90
2899;DHT22;1459;50.864;6.438;2022-09-09T12:37:34;20.60;99.90
2899;DHT22;1459;50.864;6.438;2022-09-09T12:40:04;20.70;99.90
2899;DHT22;1459;50.864;6.438;2022-09-09T12:42:32;20.90;99.90
2899;DHT22;1459;50.864;6.438;2022-09-09T12:55:17;21.80;99.90
2899;DHT22;1459;50.864;6.438;2022-09-09T12:57:45;21.80;99.90
2899;DHT22;1459;50.864;6.438;2022-09-09T13:00:15;21.90;99.90
2899;DHT22;1459;50.864;6.438;2022-09-09T13:02:49;22.00;99.90
2899;DHT22;1459;50.864;6.438;2022-09-09T13:07:45;22.20;99.90
2899;DHT22;1459;50.864;6.438;2022-09-09T13:10:15;22.40;99.90
2899;DHT22;1459;50.864;6.438;2022-09-09T13:12:46;22.60;99.90
2899;DHT22;1459;50.864;6.438;2022-09-09T13:17:52;23.10;99.90
2899;DHT22;1459;50.864;6.438;2022-09-09T13:20:21;23.20;99.90
2899;DHT22;1459;50.864;6.438;2022-09-09T13:22:50;23.10;99.90
2899;DHT22;1459;50.864;6.438;2022-09-09T13:25:21;23.20;99.90
2899;DHT22;1459;50.864;6.438;2022-09-09T13:27:57;23.20;99.90
2899;DHT22;1459;50.864;6.438;2022-09-09T13:30:28;23.40;99.90
2899;DHT22;1459;50.864;6.438;2022-09-09T13:35:50;23.50;99.90
2899;DHT22;1459;50.864;6.438;2022-09-09T13:38:18;23.50;99.90
2899;DHT22;1459;50.864;6.438;2022-09-09T13:40:57;23.50;99.90
2899;DHT22;1459;50.864;6.438;2022-09-09T13:43:28;23.40;99.90
2899;DHT22;1459;50.864;6.438;2022-09-09T13:45:57;23.30;99.90
2899;DHT22;1459;50.864;6.438;2022-09-09T13:48:26;23.20;99.90
2899;DHT22;1459;50.864;6.438;2022-09-09T13:50:58;23.20;99.90
2899;DHT22;1459;50.864;6.438;2022-09-09T13:53:25;23.30;99.90
2899;DHT22;1459;50.864;6.438;2022-09-09T13:55:53;23.30;99.90
2899;DHT22;1459;50.864;6.438;2022-09-09T13:58:23;23.20;99.90
2899;DHT22;1459;50.864;6.438;2022-09-09T14:00:51;23.00;99.90
2899;DHT22;1459;50.864;6.438;2022-09-09T14:03:19;22.80;99.90
2899;DHT22;1459;50.864;6.438;2022-09-09T14:05:47;22.60;99.90
2899;DHT22;1459;50.864;6.438;2022-09-09T14:08:23;22.50;99.90
2899;DHT22;1459;50.864;6.438;2022-09-09T14:10:50;22.30;99.90
2899;DHT22;1459;50.864;6.438;2022-09-09T14:13:18;22.40;99.90
2899;DHT22;1459;50.864;6.438;2022-09-09T14:15:48;22.20;99.90
2899;DHT22;1459;50.864;6.438;2022-09-09T14:18:15;21.80;99.90
2899;DHT22;1459;50.864;6.438;2022-09-09T14:20:42;21.30;99.90
2899;DHT22;1459;50.864;6.438;2022-09-09T14:23:12;21.10;99.90
2899;DHT22;1459;50.864;6.438;2022-09-09T14:25:41;20.80;99.90
2899;DHT22;1459;50.864;6.438;2022-09-09T14:28:10;20.80;99.90
2899;DHT22;1459;50.864;6.438;2022-09-09T14:30:39;21.00;99.90
2899;DHT22;1459;50.864;6.438;2022-09-09T14:33:08;21.20;99.90
2899;DHT22;1459;50.864;6.438;2022-09-09T14:35:39;21.60;99.90
2899;DHT22;1459;50.864;6.438;2022-09-09T14:38:06;21.90;99.90
2899;DHT22;1459;50.864;6.438;2022-09-09T14:40:36;21.90;99.90
2899;DHT22;1459;50.864;6.438;2022-09-09T14:43:04;22.00;99.90
2899;DHT22;1459;50.864;6.438;2022-09-09T14:45:32;21.90;99.90
2899;DHT22;1459;50.864;6.438;2022-09-09T14:47:59;21.80;99.90
2899;DHT22;1459;50.864;6.438;2022-09-09T14:50:26;21.70;99.90
2899;DHT22;1459;50.864;6.438;2022-09-09T14:52:54;21.70;99.90
2899;DHT22;1459;50.864;6.438;2022-09-09T14:55:21;21.50;99.90
2899;DHT22;1459;50.864;6.438;2022-09-09T14:57:49;21.40;99.90
2899;DHT22;1459;50.864;6.438;2022-09-09T15:00:16;21.30;99.90
2899;DHT22;1459;50.864;6.438;2022-09-09T15:02:43;21.20;99.90
2899;DHT22;1459;50.864;6.438;2022-09-09T15:05:10;21.30;99.90
2899;DHT22;1459;50.864;6.438;2022-09-09T15:07:37;21.40;99.90
2899;DHT22;1459;50.864;6.438;2022-09-09T15:10:06;21.60;99.90
2899;DHT22;1459;50.864;6.438;2022-09-09T15:12:33;21.70;99.90
2899;DHT22;1459;50.864;6.438;2022-09-09T15:15:02;21.70;99.90
2899;DHT22;1459;50.864;6.438;2022-09-09T15:24:51;27.10;99.90
2899;DHT22;1459;50.864;6.438;2022-09-09T15:27:18;27.20;99.90
2899;DHT22;1459;50.864;6.438;2022-09-09T15:32:14;28.40;99.90
2899;DHT22;1459;50.864;6.438;2022-09-09T15:37:10;30.30;99.90
2899;DHT22;1459;50.864;6.438;2022-09-09T15:39:38;30.60;99.70
2899;DHT22;1459;50.864;6.438;2022-09-09T15:42:06;30.60;99.50
2899;DHT22;1459;50.864;6.438;2022-09-09T15:44:38;30.20;99.40
2899;DHT22;1459;50.864;6.438;2022-09-09T15:47:06;29.40;99.70
2899;DHT22;1459;50.864;6.438;2022-09-09T15:49:34;29.20;99.90
2899;DHT22;1459;50.864;6.438;2022-09-09T15:52:01;28.50;99.90
2899;DHT22;1459;50.864;6.438;2022-09-09T15:54:31;27.50;99.90
2899;DHT22;1459;50.864;6.438;2022-09-09T15:57:00;26.60;99.90
2899;DHT22;1459;50.864;6.438;2022-09-09T16:01:59;25.00;99.90
2899;DHT22;1459;50.864;6.438;2022-09-09T16:04:27;24.30;99.90
2899;DHT22;1459;50.864;6.438;2022-09-09T16:06:59;23.80;99.90
2899;DHT22;1459;50.864;6.438;2022-09-09T16:09:27;23.30;99.90
2899;DHT22;1459;50.864;6.438;2022-09-09T16:11:56;23.00;99.90
2899;DHT22;1459;50.864;6.438;2022-09-09T16:14:23;22.90;99.90
2899;DHT22;1459;50.864;6.438;2022-09-09T16:16:54;22.80;99.90
2899;DHT22;1459;50.864;6.438;2022-09-09T16:19:21;22.70;99.90
2899;DHT22;1459;50.864;6.438;2022-09-09T16:21:49;22.60;99.90
2899;DHT22;1459;50.864;6.438;2022-09-09T16:24:19;22.50;99.90
2899;DHT22;1459;50.864;6.438;2022-09-09T16:26:48;22.40;99.90
2899;DHT22;1459;50.864;6.438;2022-09-09T16:29:16;22.30;99.90
2899;DHT22;1459;50.864;6.438;2022-09-09T16:31:44;22.10;99.90
2899;DHT22;1459;50.864;6.438;2022-09-09T16:34:12;22.00;99.90
2899;DHT22;1459;50.864;6.438;2022-09-09T16:36:41;21.90;99.90
2899;DHT22;1459;50.864;6.438;2022-09-09T16:39:10;21.80;99.90
2899;DHT22;1459;50.864;6.438;2022-09-09T16:41:40;21.70;99.90
2899;DHT22;1459;50.864;6.438;2022-09-09T16:44:09;21.50;99.90
2899;DHT22;1459;50.864;6.438;2022-09-09T16:46:38;21.30;99.90
2899;DHT22;1459;50.864;6.438;2022-09-09T16:49:08;21.00;99.90
2899;DHT22;1459;50.864;6.438;2022-09-09T16:51:36;20.90;99.90
2899;DHT22;1459;50.864;6.438;2022-09-09T16:54:05;20.70;99.90
2899;DHT22;1459;50.864;6.438;2022-09-09T16:56:35;20.60;99.90
2899;DHT22;1459;50.864;6.438;2022-09-09T16:59:06;20.50;99.90
2899;DHT22;1459;50.864;6.438;2022-09-09T17:01:35;20.40;99.90
2899;DHT22;1459;50.864;6.438;2022-09-09T17:04:05;20.40;99.90
2899;DHT22;1459;50.864;6.438;2022-09-09T17:06:33;20.30;99.90
2899;DHT22;1459;50.864;6.438;2022-09-09T17:11:30;20.20;99.90
2899;DHT22;1459;50.864;6.438;2022-09-09T17:13:58;20.00;99.90
2899;DHT22;1459;50.864;6.438;2022-09-09T17:16:29;19.90;99.90
2899;DHT22;1459;50.864;6.438;2022-09-09T17:18:56;19.80;99.90
2899;DHT22;1459;50.864;6.438;2022-09-09T17:21:27;19.70;99.90
2899;DHT22;1459;50.864;6.438;2022-09-09T17:23:56;19.60;99.90
2899;DHT22;1459;50.864;6.438;2022-09-09T17:26:25;19.50;99.90
2899;DHT22;1459;50.864;6.438;2022-09-09T17:28:53;19.50;99.90
2899;DHT22;1459;50.864;6.438;2022-09-09T17:31:22;19.50;99.90
2899;DHT22;1459;50.864;6.438;2022-09-09T17:36:20;19.40;99.90
2899;DHT22;1459;50.864;6.438;2022-09-09T17:46:13;19.10;99.90
2899;DHT22;1459;50.864;6.438;2022-09-09T17:48:41;18.50;99.90
2899;DHT22;1459;50.864;6.438;2022-09-09T17:58:36;18.40;99.90
2899;DHT22;1459;50.864;6.438;2022-09-09T18:01:05;18.20;99.90